Time;durP1;ratioP1;P1;durP2;ratioP2;P2;SDS_P1;SDS_P2;PMS_P1;PMS_P2;Temp;Humidity;BMP_temperature;BMP_pressure;BME280_temperature;BME280_humidity;BME280_pressure;Samples;Min_cycle;Max_cycle;Signal;HPM_P1;HPM_P2
2022/04/18 00:01:40;;;;;;;;;;;6.50;75.70;;;;;;5029764;28;19929;-67
2022/04/18 00:04:07;;;;;;;;;;;6.50;75.70;;;;;;5028294;28;19940;-66
2022/04/18 00:06:36;;;;;;;;;;;6.40;79.10;;;;;;5033935;28;19929;-67
2022/04/18 00:09:03;;;;;;;;;;;6.40;76.60;;;;;;5030303;28;19929;-67
2022/04/18 00:11:31;;;;;;;;;;;6.40;76.70;;;;;;5037105;28;19936;-67
2022/04/18 00:13:58;;;;;;;;;;;6.40;72.90;;;;;;5036312;28;19951;-66
2022/04/18 00:16:25;;;;;;;;;;;6.40;72.30;;;;;;5031681;28;19932;-67
2022/04/18 00:18:52;;;;;;;;;;;6.40;70.60;;;;;;5031919;28;19929;-67
2022/04/18 00:21:20;;;;;;;;;;;6.40;69.30;;;;;;5029006;28;19972;-66
2022/04/18 00:23:47;;;;;;;;;;;6.40;70.10;;;;;;5031036;28;19972;-67
2022/04/18 00:26:14;;;;;;;;;;;6.40;71.50;;;;;;5031328;28;19964;-67
2022/04/18 00:28:40;;;;;;;;;;;6.40;71.90;;;;;;5031061;28;20050;-67
2022/04/18 00:31:07;;;;;;;;;;;6.30;73.20;;;;;;5027006;28;19935;-66
2022/04/18 00:33:34;;;;;;;;;;;6.40;72.80;;;;;;5030167;28;22347;-67
2022/04/18 00:36:01;;;;;;;;;;;6.30;73.60;;;;;;5036158;28;20399;-67
2022/04/18 00:38:28;;;;;;;;;;;6.40;75.00;;;;;;5039214;28;19925;-67
2022/04/18 00:40:56;;;;;;;;;;;6.30;74.80;;;;;;5021446;28;19932;-67
2022/04/18 00:43:40;;;;;;;;;;;6.30;75.20;;;;;;5035816;28;20443;-67
2022/04/18 00:46:07;;;;;;;;;;;6.30;74.20;;;;;;5023570;28;20292;-67
2022/04/18 00:48:35;;;;;;;;;;;6.40;75.50;;;;;;5044817;28;20019;-66
2022/04/18 00:51:04;;;;;;;;;;;6.40;74.90;;;;;;5033854;28;19928;-66
2022/04/18 00:53:31;;;;;;;;;;;6.40;74.50;;;;;;5039136;28;19929;-66
2022/04/18 00:55:58;;;;;;;;;;;6.40;74.00;;;;;;5034437;28;19933;-66
2022/04/18 00:58:26;;;;;;;;;;;6.40;73.30;;;;;;5050672;28;19929;-67
2022/04/18 01:00:53;;;;;;;;;;;6.40;72.80;;;;;;5047527;28;19928;-67
2022/04/18 01:03:20;;;;;;;;;;;6.40;74.30;;;;;;5037385;28;20422;-66
2022/04/18 01:05:48;;;;;;;;;;;6.40;74.60;;;;;;5033987;28;19929;-66
2022/04/18 01:08:15;;;;;;;;;;;6.40;74.10;;;;;;5031245;28;20394;-67
2022/04/18 01:10:43;;;;;;;;;;;6.40;73.50;;;;;;5039871;28;19933;-66
2022/04/18 01:13:10;;;;;;;;;;;6.30;73.40;;;;;;5038416;28;20399;-66
2022/04/18 01:15:50;;;;;;;;;;;6.30;72.60;;;;;;5040233;28;19939;-66
2022/04/18 01:18:31;;;;;;;;;;;6.20;71.90;;;;;;5038158;28;19936;-67
2022/04/18 01:21:18;;;;;;;;;;;6.30;70.50;;;;;;5021929;28;20377;-66
2022/04/18 01:28:58;;;;;;;;;;;6.20;69.30;;;;;;5034798;28;20621;-67
2022/04/18 01:29:49;;;;;;;;;;;6.20;67.60;;;;;;5042617;28;19932;-67
2022/04/18 01:32:16;;;;;;;;;;;6.20;67.30;;;;;;5020243;28;19936;-66
2022/04/18 01:34:43;;;;;;;;;;;6.20;67.00;;;;;;5049995;28;19925;-66
2022/04/18 01:37:10;;;;;;;;;;;6.30;66.40;;;;;;5017124;28;19955;-66
2022/04/18 01:39:37;;;;;;;;;;;6.30;66.60;;;;;;5032700;28;19929;-66
2022/04/18 01:42:04;;;;;;;;;;;6.40;66.80;;;;;;5031163;28;20020;-66
2022/04/18 01:44:31;;;;;;;;;;;6.30;66.20;;;;;;5038534;28;20287;-66
2022/04/18 01:46:58;;;;;;;;;;;6.30;66.90;;;;;;5033414;28;20318;-66
2022/04/18 01:49:25;;;;;;;;;;;6.40;68.40;;;;;;5033387;28;20394;-66
2022/04/18 01:51:51;;;;;;;;;;;6.40;68.10;;;;;;5034071;28;19929;-66
2022/04/18 01:54:18;;;;;;;;;;;6.40;67.00;;;;;;5035371;28;19937;-66
2022/04/18 01:56:45;;;;;;;;;;;6.40;66.10;;;;;;5032598;28;19936;-66
2022/04/18 01:59:12;;;;;;;;;;;6.30;66.10;;;;;;5047843;28;20530;-66
2022/04/18 02:01:40;;;;;;;;;;;6.40;67.10;;;;;;5048545;28;19929;-67
2022/04/18 02:04:09;;;;;;;;;;;6.40;67.40;;;;;;5036457;28;19964;-66
2022/04/18 02:06:36;;;;;;;;;;;6.40;69.80;;;;;;5034107;28;19929;-66
2022/04/18 02:09:03;;;;;;;;;;;6.30;66.80;;;;;;5038641;28;20028;-66
2022/04/18 02:11:30;;;;;;;;;;;6.30;67.90;;;;;;5037186;28;19980;-67
2022/04/18 02:13:58;;;;;;;;;;;6.40;68.90;;;;;;5036489;28;19925;-66
2022/04/18 02:16:28;;;;;;;;;;;6.40;66.60;;;;;;5042771;28;19965;-67
2022/04/18 02:18:57;;;;;;;;;;;6.40;66.70;;;;;;5033788;28;19968;-67
2022/04/18 02:21:24;;;;;;;;;;;6.40;66.80;;;;;;5037967;28;19948;-66
2022/04/18 02:23:51;;;;;;;;;;;6.40;67.40;;;;;;5036009;28;20299;-66
2022/04/18 02:26:18;;;;;;;;;;;6.40;67.80;;;;;;5037404;28;20406;-66
2022/04/18 02:28:52;;;;;;;;;;;6.40;67.70;;;;;;5024322;28;19929;-66
2022/04/18 02:31:19;;;;;;;;;;;6.40;67.30;;;;;;5035089;28;19929;-66
2022/04/18 02:33:46;;;;;;;;;;;6.40;67.60;;;;;;5037684;28;19975;-66
2022/04/18 02:36:13;;;;;;;;;;;6.40;67.10;;;;;;5031920;28;19935;-67
2022/04/18 02:38:40;;;;;;;;;;;6.30;67.70;;;;;;5033000;28;19933;-66
2022/04/18 02:41:07;;;;;;;;;;;6.30;67.50;;;;;;5033512;28;20019;-66
2022/04/18 02:43:34;;;;;;;;;;;6.40;68.90;;;;;;5033346;28;19928;-66
2022/04/18 02:46:06;;;;;;;;;;;6.40;68.80;;;;;;5038991;28;19929;-66
2022/04/18 02:48:43;;;;;;;;;;;6.40;68.40;;;;;;5049993;28;19929;-66
2022/04/18 02:51:13;;;;;;;;;;;6.40;67.80;;;;;;5020286;28;19924;-66
2022/04/18 02:53:41;;;;;;;;;;;6.30;67.20;;;;;;5046560;28;19935;-67
2022/04/18 02:56:08;;;;;;;;;;;6.30;68.20;;;;;;5034424;28;19929;-66
2022/04/18 02:58:41;;;;;;;;;;;6.30;67.70;;;;;;5038242;28;19940;-67
2022/04/18 03:01:08;;;;;;;;;;;6.30;67.60;;;;;;5035959;28;19976;-66
2022/04/18 03:03:34;;;;;;;;;;;6.10;67.00;;;;;;5034274;28;19935;-66
2022/04/18 03:06:03;;;;;;;;;;;6.20;67.20;;;;;;5028967;28;19974;-66
2022/04/18 03:08:30;;;;;;;;;;;6.10;67.20;;;;;;5034486;28;19940;-67
2022/04/18 03:11:02;;;;;;;;;;;6.10;67.20;;;;;;5033438;28;20634;-66
2022/04/18 03:13:32;;;;;;;;;;;6.10;67.60;;;;;;5036439;28;19940;-67
2022/04/18 03:16:04;;;;;;;;;;;6.10;67.80;;;;;;5035403;28;19929;-66
2022/04/18 03:18:32;;;;;;;;;;;6.10;67.60;;;;;;5035350;28;21063;-66
2022/04/18 03:20:59;;;;;;;;;;;6.10;68.20;;;;;;5048067;28;19933;-66
2022/04/18 03:23:26;;;;;;;;;;;6.10;67.80;;;;;;5037300;28;19935;-67
2022/04/18 03:26:12;;;;;;;;;;;6.10;68.00;;;;;;5030667;28;20014;-66
2022/04/18 03:28:52;;;;;;;;;;;6.10;67.80;;;;;;5031882;28;19928;-66
2022/04/18 03:31:19;;;;;;;;;;;6.00;68.30;;;;;;5031650;28;19932;-66
2022/04/18 03:33:46;;;;;;;;;;;6.10;68.40;;;;;;5015260;28;19929;-67
2022/04/18 03:41:58;;;;;;;;;;;6.00;68.50;;;;;;5033359;28;19925;-66
2022/04/18 03:44:27;;;;;;;;;;;6.10;69.50;;;;;;5034437;28;20101;-67
2022/04/18 03:46:54;;;;;;;;;;;6.10;69.80;;;;;;5038486;28;19929;-67
2022/04/18 03:49:21;;;;;;;;;;;6.00;69.20;;;;;;5034086;28;19940;-66
2022/04/18 03:51:51;;;;;;;;;;;6.00;69.40;;;;;;5035603;28;19939;-66
2022/04/18 03:54:18;;;;;;;;;;;6.00;69.00;;;;;;5020066;28;19929;-67
2022/04/18 03:56:45;;;;;;;;;;;5.90;69.20;;;;;;5019141;28;20023;-66
2022/04/18 03:59:39;;;;;;;;;;;6.00;69.20;;;;;;5037398;28;19936;-66
2022/04/18 04:02:08;;;;;;;;;;;6.00;69.30;;;;;;5033983;28;19929;-66
2022/04/18 04:04:41;;;;;;;;;;;6.00;69.50;;;;;;5028454;28;20022;-67
2022/04/18 04:07:08;;;;;;;;;;;6.00;69.00;;;;;;5018781;28;19940;-66
2022/04/18 04:09:36;;;;;;;;;;;6.10;69.40;;;;;;5037256;28;19932;-66
2022/04/18 04:12:05;;;;;;;;;;;6.00;69.00;;;;;;5034685;28;20126;-67
2022/04/18 04:14:55;;;;;;;;;;;6.10;69.60;;;;;;5030580;28;19931;-66
2022/04/18 04:17:30;;;;;;;;;;;6.00;68.80;;;;;;5045680;28;19928;-66
2022/04/18 04:20:17;;;;;;;;;;;6.00;69.20;;;;;;5034284;28;19959;-66
2022/04/18 04:22:45;;;;;;;;;;;6.20;69.10;;;;;;5032133;28;19936;-67
2022/04/18 04:25:32;;;;;;;;;;;6.20;69.70;;;;;;5030694;28;20020;-66
2022/04/18 04:27:59;;;;;;;;;;;6.20;70.00;;;;;;5029837;28;20074;-66
2022/04/18 04:30:26;;;;;;;;;;;6.30;71.20;;;;;;5030253;28;20308;-66
2022/04/18 04:32:59;;;;;;;;;;;6.30;70.20;;;;;;5020621;28;19925;-67
2022/04/18 04:35:26;;;;;;;;;;;6.30;69.80;;;;;;5033696;28;19929;-66
2022/04/18 04:38:02;;;;;;;;;;;6.30;70.80;;;;;;5032238;28;19939;-66
2022/04/18 04:40:49;;;;;;;;;;;6.30;71.00;;;;;;5032020;28;20594;-66
2022/04/18 04:43:28;;;;;;;;;;;6.30;69.60;;;;;;5035034;28;19925;-66
2022/04/18 04:46:00;;;;;;;;;;;6.30;68.80;;;;;;5033095;28;20418;-67
2022/04/18 04:48:30;;;;;;;;;;;6.30;69.60;;;;;;5035436;28;19936;-66
2022/04/18 04:51:04;;;;;;;;;;;6.30;69.90;;;;;;5048439;28;19929;-66
2022/04/18 04:53:31;;;;;;;;;;;6.30;70.60;;;;;;5037117;28;19935;-66
2022/04/18 04:55:59;;;;;;;;;;;6.40;70.40;;;;;;5024824;28;19928;-66
2022/04/18 04:58:27;;;;;;;;;;;6.50;70.70;;;;;;5026754;28;19935;-67
2022/04/18 05:00:58;;;;;;;;;;;6.50;70.60;;;;;;5011818;28;21649;-67
2022/04/18 05:03:52;;;;;;;;;;;6.60;71.00;;;;;;4974421;28;19940;-66
2022/04/18 05:06:19;;;;;;;;;;;6.60;71.30;;;;;;4976804;28;19933;-66
2022/04/18 05:08:46;;;;;;;;;;;6.60;69.40;;;;;;4985666;28;19932;-67
2022/04/18 05:11:15;;;;;;;;;;;6.60;69.60;;;;;;4975072;28;19933;-67
2022/04/18 05:13:50;;;;;;;;;;;6.70;70.10;;;;;;4999182;28;19937;-66
2022/04/18 05:16:23;;;;;;;;;;;6.70;69.80;;;;;;5001469;28;19947;-67
2022/04/18 05:19:02;;;;;;;;;;;6.80;70.10;;;;;;5000096;28;19982;-66
2022/04/18 05:21:30;;;;;;;;;;;6.80;69.50;;;;;;4985435;28;21313;-67
2022/04/18 05:24:03;;;;;;;;;;;6.80;68.90;;;;;;5003066;28;19933;-67
2022/04/18 05:26:31;;;;;;;;;;;6.80;67.70;;;;;;4991831;28;22401;-67
2022/04/18 05:28:58;;;;;;;;;;;6.80;68.70;;;;;;4981591;28;19933;-66
2022/04/18 05:31:25;;;;;;;;;;;6.90;67.50;;;;;;5004380;28;19976;-67
2022/04/18 05:33:53;;;;;;;;;;;6.90;66.90;;;;;;4987210;28;20700;-66
2022/04/18 05:36:39;;;;;;;;;;;7.00;66.90;;;;;;4981987;28;21217;-66
2022/04/18 05:39:11;;;;;;;;;;;7.10;67.10;;;;;;4982298;28;20016;-66
2022/04/18 05:41:43;;;;;;;;;;;7.10;66.30;;;;;;4989969;28;19943;-67
2022/04/18 05:44:14;;;;;;;;;;;7.10;66.00;;;;;;4997822;28;19990;-66
2022/04/18 05:46:51;;;;;;;;;;;7.30;66.50;;;;;;4990579;28;19999;-67
2022/04/18 05:49:19;;;;;;;;;;;7.40;66.00;;;;;;4983970;28;19940;-67
2022/04/18 05:51:46;;;;;;;;;;;7.50;65.40;;;;;;5003249;28;19940;-67
2022/04/18 05:54:14;;;;;;;;;;;7.50;65.10;;;;;;5004229;28;19940;-67
2022/04/18 05:56:53;;;;;;;;;;;7.60;65.40;;;;;;5004470;28;19940;-67
2022/04/18 05:59:41;;;;;;;;;;;7.70;65.70;;;;;;4987066;28;20119;-66
2022/04/18 06:02:16;;;;;;;;;;;7.80;64.40;;;;;;4982302;28;19933;-66
2022/04/18 06:04:57;;;;;;;;;;;7.80;64.90;;;;;;4995371;28;19940;-67
2022/04/18 06:07:45;;;;;;;;;;;7.80;65.20;;;;;;5004510;28;19990;-66
2022/04/18 06:10:43;;;;;;;;;;;7.80;64.50;;;;;;4989501;28;20025;-67
2022/04/18 06:13:27;;;;;;;;;;;7.90;63.80;;;;;;4988401;28;20028;-67
2022/04/18 06:15:55;;;;;;;;;;;7.90;63.80;;;;;;4979766;28;20858;-67
2022/04/18 06:18:23;;;;;;;;;;;8.00;63.90;;;;;;4998336;28;20037;-66
2022/04/18 06:20:51;;;;;;;;;;;8.10;63.10;;;;;;4980724;28;19966;-67
2022/04/18 06:23:18;;;;;;;;;;;8.20;63.50;;;;;;5004899;28;19940;-66
2022/04/18 06:25:51;;;;;;;;;;;8.20;61.30;;;;;;4988032;28;19983;-67
2022/04/18 06:28:19;;;;;;;;;;;8.40;61.10;;;;;;4989183;28;20642;-67
2022/04/18 06:30:47;;;;;;;;;;;8.30;60.30;;;;;;4987502;28;19940;-67
2022/04/18 06:33:35;;;;;;;;;;;8.30;60.70;;;;;;4993836;28;20355;-66
2022/04/18 06:36:05;;;;;;;;;;;8.30;61.20;;;;;;4987037;28;19933;-66
2022/04/18 06:38:37;;;;;;;;;;;8.20;60.60;;;;;;4995697;28;20025;-67
2022/04/18 06:41:09;;;;;;;;;;;8.20;60.70;;;;;;4987916;28;19940;-67
2022/04/18 06:43:36;;;;;;;;;;;8.30;60.10;;;;;;5004257;28;19964;-67
2022/04/18 06:46:08;;;;;;;;;;;8.40;61.40;;;;;;4988201;28;19971;-67
2022/04/18 06:48:36;;;;;;;;;;;8.40;61.00;;;;;;4976491;28;19940;-67
2022/04/18 06:51:29;;;;;;;;;;;8.60;61.20;;;;;;5000300;28;19933;-67
2022/04/18 06:54:14;;;;;;;;;;;8.70;61.40;;;;;;4990237;28;19939;-67
2022/04/18 06:57:01;;;;;;;;;;;8.80;60.50;;;;;;5001525;28;20024;-66
2022/04/18 06:59:51;;;;;;;;;;;8.80;60.50;;;;;;4987871;28;19986;-67
2022/04/18 07:02:21;;;;;;;;;;;8.80;59.50;;;;;;4989499;28;19955;-67
2022/04/18 07:04:50;;;;;;;;;;;8.80;59.20;;;;;;4995473;28;19933;-67
2022/04/18 07:07:17;;;;;;;;;;;8.90;60.60;;;;;;4986546;28;20083;-67
2022/04/18 07:09:43;;;;;;;;;;;8.90;59.70;;;;;;4995120;28;19940;-66
2022/04/18 07:12:22;;;;;;;;;;;9.00;60.30;;;;;;4988925;28;19944;-66
2022/04/18 07:14:50;;;;;;;;;;;9.00;59.10;;;;;;4988754;28;19940;-66
2022/04/18 07:17:17;;;;;;;;;;;9.00;59.10;;;;;;4974341;28;20040;-66
2022/04/18 07:19:45;;;;;;;;;;;9.00;58.90;;;;;;4992686;28;20027;-66
2022/04/18 07:22:15;;;;;;;;;;;9.00;58.00;;;;;;5005327;28;19945;-66
2022/04/18 07:24:43;;;;;;;;;;;8.80;56.80;;;;;;5003519;28;22325;-66
2022/04/18 07:27:11;;;;;;;;;;;9.00;57.90;;;;;;4983864;28;19933;-65
2022/04/18 07:29:46;;;;;;;;;;;9.00;58.40;;;;;;4995733;28;20030;-66
2022/04/18 07:32:14;;;;;;;;;;;8.90;54.60;;;;;;4994749;28;19944;-66
2022/04/18 07:34:41;;;;;;;;;;;8.90;54.90;;;;;;5004340;28;20494;-67
2022/04/18 07:37:16;;;;;;;;;;;9.10;58.00;;;;;;4971283;28;20061;-67
2022/04/18 07:39:43;;;;;;;;;;;9.20;57.40;;;;;;4989108;28;19940;-66
2022/04/18 07:42:10;;;;;;;;;;;9.20;58.40;;;;;;5001724;28;19980;-67
2022/04/18 07:44:37;;;;;;;;;;;9.20;56.30;;;;;;5002686;28;20002;-67
2022/04/18 07:47:04;;;;;;;;;;;9.30;55.80;;;;;;4990428;28;20004;-66
2022/04/18 07:49:35;;;;;;;;;;;9.40;56.40;;;;;;4984747;28;19933;-66
2022/04/18 07:52:02;;;;;;;;;;;9.50;57.30;;;;;;4995879;28;19978;-67
2022/04/18 07:54:45;;;;;;;;;;;9.30;55.20;;;;;;4988037;28;20088;-67
2022/04/18 07:57:13;;;;;;;;;;;9.20;55.10;;;;;;4986157;28;19933;-69
2022/04/18 07:59:50;;;;;;;;;;;9.20;57.40;;;;;;4982983;28;20072;-67
2022/04/18 08:02:19;;;;;;;;;;;9.30;55.40;;;;;;4982801;28;19937;-66
2022/04/18 08:05:09;;;;;;;;;;;9.30;55.30;;;;;;4985330;28;19932;-66
2022/04/18 08:07:59;;;;;;;;;;;9.20;56.60;;;;;;4987921;28;19995;-66
2022/04/18 08:10:26;;;;;;;;;;;9.30;57.20;;;;;;4985642;28;19934;-66
2022/04/18 08:12:52;;;;;;;;;;;9.30;56.50;;;;;;4985823;28;19933;-65
2022/04/18 08:15:35;;;;;;;;;;;9.30;58.20;;;;;;4988399;28;19940;-66
2022/04/18 08:18:04;;;;;;;;;;;9.30;57.30;;;;;;4986500;28;19933;-66
2022/04/18 08:20:44;;;;;;;;;;;9.50;57.90;;;;;;5001939;28;19933;-66
2022/04/18 08:23:11;;;;;;;;;;;9.80;56.50;;;;;;4984813;28;22315;-66
2022/04/18 08:25:56;;;;;;;;;;;9.90;56.40;;;;;;4987775;28;20639;-66
2022/04/18 08:28:26;;;;;;;;;;;10.10;55.30;;;;;;4987913;28;19933;-66
2022/04/18 08:30:54;;;;;;;;;;;10.20;53.60;;;;;;4986540;28;20510;-66
2022/04/18 08:33:44;;;;;;;;;;;10.30;53.90;;;;;;4986549;28;20098;-67
2022/04/18 08:36:11;;;;;;;;;;;10.40;53.20;;;;;;4979516;28;19940;-65
2022/04/18 08:38:38;;;;;;;;;;;10.50;52.80;;;;;;5002698;28;20951;-66
2022/04/18 08:41:28;;;;;;;;;;;10.80;52.80;;;;;;4986751;28;20170;-67
2022/04/18 08:43:55;;;;;;;;;;;11.20;51.90;;;;;;4986962;28;19940;-67
2022/04/18 08:46:22;;;;;;;;;;;11.30;51.60;;;;;;4985893;28;19933;-67
2022/04/18 08:54:23;;;;;;;;;;;12.10;51.20;;;;;;4977367;28;19933;-67
2022/04/18 08:56:50;;;;;;;;;;;12.30;50.00;;;;;;4971862;28;19933;-68
2022/04/18 08:59:18;;;;;;;;;;;12.00;51.00;;;;;;5003226;28;19933;-67
2022/04/18 09:01:46;;;;;;;;;;;11.80;50.70;;;;;;4990963;28;22392;-68
2022/04/18 09:04:17;;;;;;;;;;;11.90;51.40;;;;;;4994988;28;20007;-66
2022/04/18 09:06:47;;;;;;;;;;;11.90;49.30;;;;;;4975172;28;20177;-68
2022/04/18 09:09:30;;;;;;;;;;;11.60;50.80;;;;;;4975742;28;20583;-67
2022/04/18 09:12:16;;;;;;;;;;;11.10;50.60;;;;;;4973754;28;19933;-67
2022/04/18 09:14:48;;;;;;;;;;;10.50;52.20;;;;;;4988508;28;20307;-68
2022/04/18 09:17:32;;;;;;;;;;;10.40;54.70;;;;;;4992104;28;19933;-67
2022/04/18 09:20:39;;;;;;;;;;;10.10;53.60;;;;;;4981781;28;20575;-66
2022/04/18 09:23:18;;;;;;;;;;;9.80;56.10;;;;;;5003124;28;19972;-67
2022/04/18 09:25:44;;;;;;;;;;;9.20;60.30;;;;;;4996814;28;19940;-67
2022/04/18 09:28:12;;;;;;;;;;;8.70;65.70;;;;;;4984575;28;20707;-67
2022/04/18 09:30:42;;;;;;;;;;;8.70;71.00;;;;;;4988816;28;19932;-67
2022/04/18 09:33:09;;;;;;;;;;;8.70;71.60;;;;;;5002784;28;19991;-67
2022/04/18 09:35:52;;;;;;;;;;;8.80;73.20;;;;;;4987025;28;19956;-68
2022/04/18 09:38:19;;;;;;;;;;;9.20;72.10;;;;;;4990260;28;22712;-67
2022/04/18 09:41:05;;;;;;;;;;;9.40;71.50;;;;;;4988189;28;20022;-68
2022/04/18 09:43:36;;;;;;;;;;;9.30;69.40;;;;;;4988679;28;19933;-68
2022/04/18 09:46:03;;;;;;;;;;;9.50;70.70;;;;;;4990262;28;20411;-67
2022/04/18 09:48:34;;;;;;;;;;;10.10;68.60;;;;;;4991411;28;20244;-67
2022/04/18 09:51:11;;;;;;;;;;;10.50;64.80;;;;;;4987595;28;20099;-67
2022/04/18 09:53:50;;;;;;;;;;;10.70;60.90;;;;;;5005103;28;19973;-67
2022/04/18 09:56:17;;;;;;;;;;;11.20;61.90;;;;;;4987149;28;19944;-67
2022/04/18 09:58:44;;;;;;;;;;;11.40;61.60;;;;;;4991062;28;22463;-67
2022/04/18 10:01:32;;;;;;;;;;;11.30;57.50;;;;;;4989782;28;20422;-67
2022/04/18 10:03:59;;;;;;;;;;;11.50;62.30;;;;;;4993279;28;19999;-67
2022/04/18 10:06:26;;;;;;;;;;;11.60;58.70;;;;;;4989801;28;19933;-67
2022/04/18 10:08:53;;;;;;;;;;;11.20;58.10;;;;;;5001392;28;20309;-68
2022/04/18 10:11:22;;;;;;;;;;;11.00;57.30;;;;;;4998776;28;19939;-67
2022/04/18 10:13:49;;;;;;;;;;;10.60;56.80;;;;;;4991400;28;19971;-67
2022/04/18 10:16:18;;;;;;;;;;;10.30;55.40;;;;;;4992450;28;19932;-68
2022/04/18 10:18:50;;;;;;;;;;;10.10;56.70;;;;;;4988361;28;19940;-68
2022/04/18 10:21:27;;;;;;;;;;;10.10;57.70;;;;;;4996653;28;19976;-68
2022/04/18 10:24:00;;;;;;;;;;;10.10;58.30;;;;;;4990354;28;20457;-68
2022/04/18 10:26:39;;;;;;;;;;;9.90;59.30;;;;;;4991061;28;20071;-68
2022/04/18 10:29:25;;;;;;;;;;;9.70;62.40;;;;;;4980057;28;19961;-67
2022/04/18 10:31:57;;;;;;;;;;;9.50;63.10;;;;;;4989349;28;19936;-67
2022/04/18 10:34:26;;;;;;;;;;;9.30;65.50;;;;;;4987722;28;19933;-66
2022/04/18 10:36:54;;;;;;;;;;;9.20;69.40;;;;;;4987447;28;19933;-67
2022/04/18 10:39:21;;;;;;;;;;;9.10;70.60;;;;;;4986539;28;19933;-69
2022/04/18 10:41:49;;;;;;;;;;;9.00;73.40;;;;;;4989376;28;20877;-69
2022/04/18 10:44:16;;;;;;;;;;;9.00;73.80;;;;;;4990195;28;20999;-68
2022/04/18 10:46:55;;;;;;;;;;;9.10;74.80;;;;;;4991661;28;22619;-68
2022/04/18 10:49:27;;;;;;;;;;;9.10;73.50;;;;;;5003396;28;20921;-68
2022/04/18 10:51:54;;;;;;;;;;;9.30;73.70;;;;;;4989601;28;20063;-67
2022/04/18 10:54:23;;;;;;;;;;;9.50;73.60;;;;;;4990640;28;19933;-68
2022/04/18 10:56:49;;;;;;;;;;;9.60;73.20;;;;;;4988107;28;19976;-68
2022/04/18 10:59:37;;;;;;;;;;;9.90;75.70;;;;;;4991883;28;19933;-67
2022/04/18 11:02:05;;;;;;;;;;;10.20;74.60;;;;;;4970724;28;19940;-67
2022/04/18 11:04:33;;;;;;;;;;;10.20;75.00;;;;;;4990761;28;19933;-68
2022/04/18 11:07:05;;;;;;;;;;;10.40;72.10;;;;;;4989556;28;19932;-67
2022/04/18 11:09:33;;;;;;;;;;;10.40;72.00;;;;;;4990522;28;19933;-67
2022/04/18 11:12:01;;;;;;;;;;;10.70;72.60;;;;;;4989012;28;20882;-68
2022/04/18 11:14:51;;;;;;;;;;;10.70;71.40;;;;;;4989710;28;19940;-66
2022/04/18 11:17:26;;;;;;;;;;;10.80;68.10;;;;;;4983661;28;19990;-68
2022/04/18 11:19:53;;;;;;;;;;;11.00;69.00;;;;;;4989840;28;20802;-68
2022/04/18 11:22:20;;;;;;;;;;;11.00;70.80;;;;;;4990068;28;21317;-67
2022/04/18 11:24:54;;;;;;;;;;;11.10;69.70;;;;;;4987200;28;19932;-68
2022/04/18 11:27:23;;;;;;;;;;;11.10;70.80;;;;;;4993248;28;20079;-67
2022/04/18 11:29:54;;;;;;;;;;;10.70;69.40;;;;;;5003459;28;19933;-67
2022/04/18 11:32:22;;;;;;;;;;;11.00;67.10;;;;;;4986633;28;19933;-67
2022/04/18 11:34:51;;;;;;;;;;;11.30;70.60;;;;;;4990009;28;20025;-68
2022/04/18 11:37:26;;;;;;;;;;;11.40;69.70;;;;;;4988368;28;19932;-71
2022/04/18 11:39:54;;;;;;;;;;;11.60;68.20;;;;;;5003097;28;19933;-67
2022/04/18 11:42:22;;;;;;;;;;;11.70;65.20;;;;;;4987595;28;19933;-67
2022/04/18 11:44:51;;;;;;;;;;;11.80;64.50;;;;;;4987807;28;22372;-69
2022/04/18 11:47:21;;;;;;;;;;;11.80;61.90;;;;;;4991917;28;19937;-67
2022/04/18 11:49:52;;;;;;;;;;;11.90;64.30;;;;;;4984664;28;19939;-69
2022/04/18 11:52:20;;;;;;;;;;;12.10;64.30;;;;;;4985995;28;19933;-69
2022/04/18 11:54:58;;;;;;;;;;;12.10;66.60;;;;;;5003046;28;19935;-69
2022/04/18 11:57:25;;;;;;;;;;;12.20;64.10;;;;;;5003219;28;20132;-67
2022/04/18 11:59:52;;;;;;;;;;;12.40;62.10;;;;;;4985047;28;19940;-69
2022/04/18 12:08:05;;;;;;;;;;;12.70;57.00;;;;;;4986206;28;20514;-69
2022/04/18 12:10:35;;;;;;;;;;;12.80;56.30;;;;;;4982280;28;19994;-69
2022/04/18 12:13:06;;;;;;;;;;;12.40;55.50;;;;;;4984934;28;20650;-69
2022/04/18 12:15:34;;;;;;;;;;;12.20;54.80;;;;;;4981559;28;19933;-69
2022/04/18 12:18:12;;;;;;;;;;;11.90;58.20;;;;;;4974868;28;19955;-68
2022/04/18 12:20:43;;;;;;;;;;;11.80;57.10;;;;;;4959388;28;22582;-69
2022/04/18 12:23:17;;;;;;;;;;;10.70;56.90;;;;;;4975237;28;20910;-69
2022/04/18 12:25:45;;;;;;;;;;;10.20;61.30;;;;;;4973520;28;19933;-68
2022/04/18 12:28:12;;;;;;;;;;;10.40;62.40;;;;;;4984065;28;19937;-67
2022/04/18 12:30:39;;;;;;;;;;;9.80;62.00;;;;;;4980918;28;20010;-68
2022/04/18 12:33:13;;;;;;;;;;;9.40;65.60;;;;;;4986160;28;19944;-67
2022/04/18 12:35:42;;;;;;;;;;;9.10;69.50;;;;;;4987393;28;19933;-67
2022/04/18 12:38:10;;;;;;;;;;;9.00;68.70;;;;;;4984814;28;20043;-67
2022/04/18 12:40:43;;;;;;;;;;;9.20;71.50;;;;;;4985889;28;19933;-67
2022/04/18 12:43:15;;;;;;;;;;;9.10;68.50;;;;;;4989953;28;19933;-69
2022/04/18 12:45:42;;;;;;;;;;;9.50;68.40;;;;;;4977578;28;19932;-67
2022/04/18 12:48:09;;;;;;;;;;;10.10;69.30;;;;;;4987488;28;20629;-68
2022/04/18 12:50:36;;;;;;;;;;;10.80;68.70;;;;;;4985532;28;19940;-67
2022/04/18 12:53:03;;;;;;;;;;;11.20;67.20;;;;;;4985223;28;19955;-67
2022/04/18 12:55:31;;;;;;;;;;;11.40;63.60;;;;;;4984786;28;19979;-69
2022/04/18 12:57:58;;;;;;;;;;;11.30;60.90;;;;;;4983754;28;20062;-68
2022/04/18 13:00:35;;;;;;;;;;;11.60;60.40;;;;;;4979354;28;20025;-68
2022/04/18 13:03:04;;;;;;;;;;;11.70;59.80;;;;;;4981205;28;19933;-68
2022/04/18 13:05:32;;;;;;;;;;;11.80;61.00;;;;;;4982524;28;20027;-68
2022/04/18 13:08:00;;;;;;;;;;;11.90;58.30;;;;;;4989702;28;20041;-70
2022/04/18 13:10:28;;;;;;;;;;;11.90;58.10;;;;;;4987392;28;19940;-69
2022/04/18 13:13:02;;;;;;;;;;;11.60;57.20;;;;;;4980792;28;20002;-67
2022/04/18 13:15:29;;;;;;;;;;;12.20;59.90;;;;;;4991683;28;19933;-68
2022/04/18 13:18:04;;;;;;;;;;;12.40;61.00;;;;;;4989709;28;22140;-69
2022/04/18 13:20:31;;;;;;;;;;;12.50;58.20;;;;;;4988544;28;19972;-69
2022/04/18 13:22:59;;;;;;;;;;;12.70;57.70;;;;;;4986704;28;19957;-68
2022/04/18 13:25:27;;;;;;;;;;;12.70;54.50;;;;;;4989929;28;20008;-67
2022/04/18 13:27:55;;;;;;;;;;;12.90;54.00;;;;;;4989582;28;19933;-67
2022/04/18 13:30:25;;;;;;;;;;;13.10;52.50;;;;;;4986922;28;20456;-69
2022/04/18 13:32:53;;;;;;;;;;;13.10;53.50;;;;;;4988712;28;19971;-68
2022/04/18 13:35:20;;;;;;;;;;;13.30;54.40;;;;;;4980832;28;19932;-68
2022/04/18 13:37:47;;;;;;;;;;;13.20;53.20;;;;;;4986469;28;22437;-69
2022/04/18 13:40:14;;;;;;;;;;;13.20;53.80;;;;;;4987379;28;22402;-68
2022/04/18 13:42:42;;;;;;;;;;;13.10;52.70;;;;;;4999885;28;19940;-68
2022/04/18 13:45:11;;;;;;;;;;;13.20;52.90;;;;;;5001553;28;20024;-69
2022/04/18 13:47:39;;;;;;;;;;;13.00;53.30;;;;;;4989197;28;20027;-67
2022/04/18 13:50:07;;;;;;;;;;;13.10;54.00;;;;;;4985572;28;19979;-68
2022/04/18 13:52:35;;;;;;;;;;;13.20;53.80;;;;;;4985340;28;19933;-69
2022/04/18 13:55:02;;;;;;;;;;;13.30;50.80;;;;;;5001495;28;20075;-67
2022/04/18 13:57:29;;;;;;;;;;;13.50;50.20;;;;;;4984957;28;19954;-68
2022/04/18 13:59:56;;;;;;;;;;;13.40;51.20;;;;;;4981098;28;19979;-69
2022/04/18 14:02:23;;;;;;;;;;;13.50;50.70;;;;;;4985335;28;19982;-68
2022/04/18 14:04:49;;;;;;;;;;;13.70;50.90;;;;;;4986298;28;19933;-68
2022/04/18 14:07:16;;;;;;;;;;;13.80;51.50;;;;;;4987249;28;19939;-69
2022/04/18 14:09:44;;;;;;;;;;;14.00;51.00;;;;;;4989917;28;19932;-67
2022/04/18 14:12:31;;;;;;;;;;;13.80;47.10;;;;;;4989714;28;22358;-70
2022/04/18 14:20:31;;;;;;;;;;;13.10;48.70;;;;;;4990914;28;19940;-69
2022/04/18 14:22:58;;;;;;;;;;;13.10;47.10;;;;;;4994452;28;19933;-69
2022/04/18 14:25:27;;;;;;;;;;;13.10;48.20;;;;;;4986157;28;19933;-69
2022/04/18 14:27:54;;;;;;;;;;;13.00;48.60;;;;;;4976149;28;21867;-68
2022/04/18 14:30:21;;;;;;;;;;;12.90;48.50;;;;;;4980560;28;22371;-68
2022/04/18 14:32:48;;;;;;;;;;;12.60;51.40;;;;;;4990829;28;22282;-68
2022/04/18 14:35:15;;;;;;;;;;;12.30;53.30;;;;;;4984673;28;19983;-68
2022/04/18 14:37:42;;;;;;;;;;;12.20;52.90;;;;;;4979758;28;20124;-68
2022/04/18 14:40:10;;;;;;;;;;;12.00;50.90;;;;;;4972516;28;21468;-69
2022/04/18 14:42:37;;;;;;;;;;;11.90;49.20;;;;;;4981501;28;19933;-69
2022/04/18 14:45:05;;;;;;;;;;;11.90;50.00;;;;;;4988424;28;19964;-68
2022/04/18 14:47:32;;;;;;;;;;;11.70;53.10;;;;;;4985345;28;20422;-68
2022/04/18 14:50:00;;;;;;;;;;;11.60;57.80;;;;;;4993065;28;20015;-69
2022/04/18 14:52:27;;;;;;;;;;;11.50;58.90;;;;;;4986864;28;20044;-70
2022/04/18 14:54:54;;;;;;;;;;;11.60;60.20;;;;;;4981389;28;19933;-70
2022/04/18 14:57:22;;;;;;;;;;;11.40;61.30;;;;;;4986457;28;19936;-68
2022/04/18 14:59:50;;;;;;;;;;;11.30;62.00;;;;;;4975677;28;22292;-69
2022/04/18 15:02:18;;;;;;;;;;;11.30;63.00;;;;;;5002005;28;19940;-69
2022/04/18 15:04:46;;;;;;;;;;;11.10;62.00;;;;;;4989140;28;19932;-69
2022/04/18 15:07:13;;;;;;;;;;;11.20;63.10;;;;;;4984814;28;22262;-69
2022/04/18 15:09:40;;;;;;;;;;;11.00;64.50;;;;;;4988937;28;19933;-68
2022/04/18 15:12:10;;;;;;;;;;;10.80;67.20;;;;;;4992583;28;22335;-69
2022/04/18 15:14:37;;;;;;;;;;;10.60;70.50;;;;;;4988473;28;19940;-73